sensor_id;sensor_type;location;lat;lon;timestamp;pressure;altitude;pressure_sealevel;temperature;humidity
18396;BME280;76377;45.194;5.734;2024-02-14T00:02:25;99881.63;;;7.69;77.09
18396;BME280;76377;45.194;5.734;2024-02-14T00:04:52;99891.50;;;7.62;77.88
18396;BME280;76377;45.194;5.734;2024-02-14T00:07:19;99893.63;;;7.47;78.50
18396;BME280;76377;45.194;5.734;2024-02-14T00:09:47;99899.44;;;7.37;78.06
18396;BME280;76377;45.194;5.734;2024-02-14T00:12:15;99899.28;;;7.34;78.80
18396;BME280;76377;45.194;5.734;2024-02-14T00:14:42;99902.47;;;7.27;78.71
18396;BME280;76377;45.194;5.734;2024-02-14T00:17:10;99897.81;;;7.36;78.78
18396;BME280;76377;45.194;5.734;2024-02-14T00:19:40;99899.28;;;7.34;79.24
18396;BME280;76377;45.194;5.734;2024-02-14T00:22:10;99900.56;;;7.36;79.81
18396;BME280;76377;45.194;5.734;2024-02-14T00:24:38;99910.44;;;7.37;80.05
18396;BME280;76377;45.194;5.734;2024-02-14T00:27:05;99901.06;;;7.38;80.06
18396;BME280;76377;45.194;5.734;2024-02-14T00:29:34;99883.41;;;7.39;80.05
18396;BME280;76377;45.194;5.734;2024-02-14T00:32:01;99878.41;;;7.41;79.69
18396;BME280;76377;45.194;5.734;2024-02-14T00:34:28;99886.81;;;7.53;79.36
18396;BME280;76377;45.194;5.734;2024-02-14T00:36:55;99885.69;;;7.46;79.78
18396;BME280;76377;45.194;5.734;2024-02-14T00:39:22;99887.47;;;7.50;80.04
18396;BME280;76377;45.194;5.734;2024-02-14T00:41:49;99881.00;;;7.38;79.83
18396;BME280;76377;45.194;5.734;2024-02-14T00:44:18;99878.25;;;7.38;79.12
18396;BME280;76377;45.194;5.734;2024-02-14T00:46:46;99881.16;;;7.41;78.74
18396;BME280;76377;45.194;5.734;2024-02-14T00:49:13;99886.00;;;7.44;78.66
18396;BME280;76377;45.194;5.734;2024-02-14T00:51:41;99886.97;;;7.40;78.93
18396;BME280;76377;45.194;5.734;2024-02-14T00:54:08;99882.28;;;7.40;77.99
18396;BME280;76377;45.194;5.734;2024-02-14T00:56:35;99886.97;;;7.48;77.04
18396;BME280;76377;45.194;5.734;2024-02-14T00:59:02;99898.31;;;7.47;77.53
18396;BME280;76377;45.194;5.734;2024-02-14T01:01:29;99894.91;;;7.41;78.15
18396;BME280;76377;45.194;5.734;2024-02-14T01:03:57;99897.34;;;7.34;78.97
18396;BME280;76377;45.194;5.734;2024-02-14T01:06:24;99911.72;;;7.31;79.07
18396;BME280;76377;45.194;5.734;2024-02-14T01:08:51;99904.75;;;7.25;79.01
18396;BME280;76377;45.194;5.734;2024-02-14T01:11:19;99905.75;;;7.29;79.78
18396;BME280;76377;45.194;5.734;2024-02-14T01:13:46;99906.50;;;7.21;80.01
18396;BME280;76377;45.194;5.734;2024-02-14T01:16:13;99911.19;;;7.20;80.77
18396;BME280;76377;45.194;5.734;2024-02-14T01:18:40;99903.75;;;7.21;80.46
18396;BME280;76377;45.194;5.734;2024-02-14T01:21:09;99903.44;;;7.22;80.46
18396;BME280;76377;45.194;5.734;2024-02-14T01:23:36;99901.97;;;7.25;80.37
18396;BME280;76377;45.194;5.734;2024-02-14T01:26:03;99905.75;;;7.29;80.01
18396;BME280;76377;45.194;5.734;2024-02-14T01:28:30;99900.56;;;7.36;79.56
18396;BME280;76377;45.194;5.734;2024-02-14T01:30:57;99911.75;;;7.48;78.99
18396;BME280;76377;45.194;5.734;2024-02-14T01:33:24;99905.91;;;7.41;78.33
18396;BME280;76377;45.194;5.734;2024-02-14T01:35:51;99915.63;;;7.47;78.46
18396;BME280;76377;45.194;5.734;2024-02-14T01:38:20;99915.13;;;7.45;78.47
18396;BME280;76377;45.194;5.734;2024-02-14T01:40:47;99916.59;;;7.51;78.20
18396;BME280;76377;45.194;5.734;2024-02-14T01:43:15;99912.06;;;7.55;78.00
18396;BME280;76377;45.194;5.734;2024-02-14T01:45:42;99917.88;;;7.63;77.44
18396;BME280;76377;45.194;5.734;2024-02-14T01:48:09;99920.81;;;7.57;77.50
18396;BME280;76377;45.194;5.734;2024-02-14T01:50:37;99921.28;;;7.59;78.01
18396;BME280;76377;45.194;5.734;2024-02-14T01:53:06;99924.53;;;7.62;78.01
18396;BME280;76377;45.194;5.734;2024-02-14T01:55:35;99929.69;;;7.63;78.43
18396;BME280;76377;45.194;5.734;2024-02-14T01:58:03;99934.72;;;7.52;77.35
18396;BME280;76377;45.194;5.734;2024-02-14T02:00:30;99937.16;;;7.54;77.55
18396;BME280;76377;45.194;5.734;2024-02-14T02:03:01;99928.72;;;7.42;77.71
18396;BME280;76377;45.194;5.734;2024-02-14T02:05:28;99934.88;;;7.56;77.15
18396;BME280;76377;45.194;5.734;2024-02-14T02:07:55;99935.19;;;7.37;77.13
18396;BME280;76377;45.194;5.734;2024-02-14T02:10:22;99931.81;;;7.40;77.85
18396;BME280;76377;45.194;5.734;2024-02-14T02:12:57;99931.09;;;7.26;79.92
18396;BME280;76377;45.194;5.734;2024-02-14T02:15:25;99921.72;;;7.27;79.71
18396;BME280;76377;45.194;5.734;2024-02-14T02:17:52;99917.22;;;7.31;78.60
18396;BME280;76377;45.194;5.734;2024-02-14T02:20:19;99923.22;;;7.42;78.09
18396;BME280;76377;45.194;5.734;2024-02-14T02:22:48;99919.34;;;7.34;78.72
18396;BME280;76377;45.194;5.734;2024-02-14T02:25:15;99912.34;;;7.28;79.02
18396;BME280;76377;45.194;5.734;2024-02-14T02:27:42;99912.00;;;7.21;80.08
18396;BME280;76377;45.194;5.734;2024-02-14T02:30:09;99913.78;;;7.08;80.23
18396;BME280;76377;45.194;5.734;2024-02-14T02:32:39;99917.47;;;7.04;79.00
18396;BME280;76377;45.194;5.734;2024-02-14T02:35:07;99919.59;;;7.07;79.06
18396;BME280;76377;45.194;5.734;2024-02-14T02:37:35;99912.31;;;7.11;79.25
18396;BME280;76377;45.194;5.734;2024-02-14T02:40:04;99904.38;;;7.09;80.04
18396;BME280;76377;45.194;5.734;2024-02-14T02:42:33;99907.78;;;7.15;79.81
18396;BME280;76377;45.194;5.734;2024-02-14T02:45:00;99905.38;;;7.22;79.39
18396;BME280;76377;45.194;5.734;2024-02-14T02:47:27;99905.88;;;7.24;79.96
18396;BME280;76377;45.194;5.734;2024-02-14T02:49:55;99918.47;;;7.25;79.26
18396;BME280;76377;45.194;5.734;2024-02-14T02:52:27;99905.88;;;7.24;78.86
18396;BME280;76377;45.194;5.734;2024-02-14T02:54:54;99902.63;;;7.22;79.23
18396;BME280;76377;45.194;5.734;2024-02-14T02:57:23;99898.25;;;7.12;79.26
18396;BME280;76377;45.194;5.734;2024-02-14T02:59:52;99893.91;;;7.20;79.01
18396;BME280;76377;45.194;5.734;2024-02-14T03:02:20;99899.56;;;7.15;79.44
18396;BME280;76377;45.194;5.734;2024-02-14T03:04:47;99906.34;;;7.17;79.41
18396;BME280;76377;45.194;5.734;2024-02-14T03:07:16;99901.81;;;7.04;81.05
18396;BME280;76377;45.194;5.734;2024-02-14T03:09:44;99897.75;;;7.02;82.45
18396;BME280;76377;45.194;5.734;2024-02-14T03:12:11;99898.22;;;6.95;82.54
18396;BME280;76377;45.194;5.734;2024-02-14T03:14:43;99899.97;;;6.82;82.84
18396;BME280;76377;45.194;5.734;2024-02-14T03:17:10;99891.88;;;6.77;83.69
18396;BME280;76377;45.194;5.734;2024-02-14T03:19:39;99886.38;;;6.77;83.31
18396;BME280;76377;45.194;5.734;2024-02-14T03:22:06;99888.59;;;6.75;83.41
18396;BME280;76377;45.194;5.734;2024-02-14T03:24:34;99884.72;;;6.76;83.08
18396;BME280;76377;45.194;5.734;2024-02-14T03:27:03;99885.84;;;6.75;82.50
18396;BME280;76377;45.194;5.734;2024-02-14T03:29:31;99895.13;;;6.79;82.21
18396;BME280;76377;45.194;5.734;2024-02-14T03:32:02;99896.72;;;6.80;82.36
18396;BME280;76377;45.194;5.734;2024-02-14T03:34:30;99896.34;;;6.73;82.39
18396;BME280;76377;45.194;5.734;2024-02-14T03:36:59;99905.72;;;6.72;83.32
18396;BME280;76377;45.194;5.734;2024-02-14T03:39:28;99898.94;;;6.70;83.50
18396;BME280;76377;45.194;5.734;2024-02-14T03:41:56;99899.75;;;6.70;82.78
18396;BME280;76377;45.194;5.734;2024-02-14T03:44:24;99899.91;;;6.65;83.62
18396;BME280;76377;45.194;5.734;2024-02-14T03:46:51;99900.53;;;6.62;83.34
18396;BME280;76377;45.194;5.734;2024-02-14T03:49:20;99893.59;;;6.64;83.82
18396;BME280;76377;45.194;5.734;2024-02-14T03:51:47;99900.22;;;6.72;83.98
18396;BME280;76377;45.194;5.734;2024-02-14T03:54:15;99899.81;;;6.79;83.81
18396;BME280;76377;45.194;5.734;2024-02-14T03:56:42;99895.94;;;6.80;83.65
18396;BME280;76377;45.194;5.734;2024-02-14T03:59:09;99889.63;;;6.79;83.36
18396;BME280;76377;45.194;5.734;2024-02-14T04:01:36;99891.25;;;6.80;83.46
18396;BME280;76377;45.194;5.734;2024-02-14T04:04:03;99899.38;;;7.03;82.60
18396;BME280;76377;45.194;5.734;2024-02-14T04:06:32;99914.53;;;6.91;82.81
18396;BME280;76377;45.194;5.734;2024-02-14T04:09:00;99905.50;;;6.91;82.50
18396;BME280;76377;45.194;5.734;2024-02-14T04:11:27;99901.94;;;6.90;82.86
18396;BME280;76377;45.194;5.734;2024-02-14T04:13:54;99901.44;;;6.88;82.49
18396;BME280;76377;45.194;5.734;2024-02-14T04:16:21;99903.84;;;6.81;83.62
18396;BME280;76377;45.194;5.734;2024-02-14T04:18:48;99902.56;;;6.79;83.55
18396;BME280;76377;45.194;5.734;2024-02-14T04:21:15;99893.28;;;6.75;83.94
18396;BME280;76377;45.194;5.734;2024-02-14T04:23:43;99892.31;;;6.71;83.96
18396;BME280;76377;45.194;5.734;2024-02-14T04:26:19;99900.38;;;6.67;83.93
18396;BME280;76377;45.194;5.734;2024-02-14T04:28:46;99894.84;;;6.58;84.84
18396;BME280;76377;45.194;5.734;2024-02-14T04:31:13;99901.31;;;6.54;84.55
18396;BME280;76377;45.194;5.734;2024-02-14T04:33:40;99902.78;;;6.60;84.92
18396;BME280;76377;45.194;5.734;2024-02-14T04:36:07;99904.41;;;6.61;85.00
18396;BME280;76377;45.194;5.734;2024-02-14T04:38:35;99892.13;;;6.58;84.76
18396;BME280;76377;45.194;5.734;2024-02-14T04:41:03;99893.06;;;6.54;84.17
18396;BME280;76377;45.194;5.734;2024-02-14T04:43:30;99899.16;;;6.42;85.82
18396;BME280;76377;45.194;5.734;2024-02-14T04:45:57;99902.38;;;6.36;86.79
18396;BME280;76377;45.194;5.734;2024-02-14T04:48:25;99905.25;;;6.30;87.00
18396;BME280;76377;45.194;5.734;2024-02-14T04:50:52;99898.13;;;6.29;87.45
18396;BME280;76377;45.194;5.734;2024-02-14T04:53:19;99898.78;;;6.26;87.29
18396;BME280;76377;45.194;5.734;2024-02-14T04:55:47;99895.53;;;6.24;87.09
18396;BME280;76377;45.194;5.734;2024-02-14T04:58:15;99893.88;;;6.23;86.17
18396;BME280;76377;45.194;5.734;2024-02-14T05:00:42;99894.00;;;6.18;86.53
18396;BME280;76377;45.194;5.734;2024-02-14T05:03:09;99891.91;;;6.15;86.99
18396;BME280;76377;45.194;5.734;2024-02-14T05:05:36;99896.75;;;6.18;87.41
18396;BME280;76377;45.194;5.734;2024-02-14T05:08:04;99907.38;;;6.11;87.00
18396;BME280;76377;45.194;5.734;2024-02-14T05:10:31;99913.69;;;6.12;87.72
18396;BME280;76377;45.194;5.734;2024-02-14T05:12:58;99905.25;;;6.08;87.83
18396;BME280;76377;45.194;5.734;2024-02-14T05:15:28;99906.88;;;6.09;87.39
18396;BME280;76377;45.194;5.734;2024-02-14T05:17:55;99913.31;;;6.05;87.85
18396;BME280;76377;45.194;5.734;2024-02-14T05:20:22;99903.91;;;5.97;88.24
18396;BME280;76377;45.194;5.734;2024-02-14T05:22:49;99908.50;;;5.88;89.24
18396;BME280;76377;45.194;5.734;2024-02-14T05:25:16;99914.56;;;5.98;88.85
18396;BME280;76377;45.194;5.734;2024-02-14T05:27:44;99929.41;;;5.97;88.88
18396;BME280;76377;45.194;5.734;2024-02-14T05:30:13;99928.72;;;5.92;89.23
18396;BME280;76377;45.194;5.734;2024-02-14T05:32:41;99937.81;;;5.79;90.07
18396;BME280;76377;45.194;5.734;2024-02-14T05:35:08;99946.97;;;5.74;90.40
18396;BME280;76377;45.194;5.734;2024-02-14T05:37:36;99949.63;;;5.65;91.19
18396;BME280;76377;45.194;5.734;2024-02-14T05:40:04;99936.41;;;5.67;91.35
18396;BME280;76377;45.194;5.734;2024-02-14T05:42:32;99927.88;;;5.69;90.53
18396;BME280;76377;45.194;5.734;2024-02-14T05:45:00;99929.91;;;5.63;91.01
18396;BME280;76377;45.194;5.734;2024-02-14T05:47:29;99934.72;;;5.58;91.96
18396;BME280;76377;45.194;5.734;2024-02-14T05:49:58;99940.41;;;5.61;91.66
18396;BME280;76377;45.194;5.734;2024-02-14T05:52:25;99946.88;;;5.65;91.09
18396;BME280;76377;45.194;5.734;2024-02-14T05:54:52;99951.88;;;5.63;90.94
18396;BME280;76377;45.194;5.734;2024-02-14T05:57:19;99949.63;;;5.65;90.58
18396;BME280;76377;45.194;5.734;2024-02-14T05:59:46;99948.38;;;5.71;90.27
18396;BME280;76377;45.194;5.734;2024-02-14T06:02:14;99953.69;;;5.68;90.03
18396;BME280;76377;45.194;5.734;2024-02-14T06:04:41;99953.28;;;5.75;89.59
18396;BME280;76377;45.194;5.734;2024-02-14T06:07:09;99958.13;;;5.78;89.52
18396;BME280;76377;45.194;5.734;2024-02-14T06:09:37;99959.88;;;5.74;89.45
18396;BME280;76377;45.194;5.734;2024-02-14T06:12:06;99954.28;;;5.79;89.21
18396;BME280;76377;45.194;5.734;2024-02-14T06:14:33;99967.88;;;5.84;88.51
18396;BME280;76377;45.194;5.734;2024-02-14T06:17:00;99977.47;;;5.73;88.69
18396;BME280;76377;45.194;5.734;2024-02-14T06:19:28;99979.91;;;5.74;89.06
18396;BME280;76377;45.194;5.734;2024-02-14T06:21:56;99989.66;;;5.66;89.61
18396;BME280;76377;45.194;5.734;2024-02-14T06:24:24;99985.97;;;5.71;89.39
18396;BME280;76377;45.194;5.734;2024-02-14T06:26:51;99981.59;;;5.70;89.37
18396;BME280;76377;45.194;5.734;2024-02-14T06:29:18;99974.00;;;5.67;89.20
18396;BME280;76377;45.194;5.734;2024-02-14T06:31:49;99975.31;;;5.69;90.08
18396;BME280;76377;45.194;5.734;2024-02-14T06:34:16;99972.56;;;5.69;89.74
18396;BME280;76377;45.194;5.734;2024-02-14T06:36:46;99973.06;;;5.71;89.59
18396;BME280;76377;45.194;5.734;2024-02-14T06:39:13;99974.31;;;5.65;89.38
18396;BME280;76377;45.194;5.734;2024-02-14T06:41:41;99974.81;;;5.67;89.51
18396;BME280;76377;45.194;5.734;2024-02-14T06:44:09;99972.56;;;5.69;89.34
18396;BME280;76377;45.194;5.734;2024-02-14T06:46:36;99973.59;;;5.74;88.81
18396;BME280;76377;45.194;5.734;2024-02-14T06:49:03;99989.44;;;5.77;88.88
18396;BME280;76377;45.194;5.734;2024-02-14T06:51:30;99993.19;;;5.81;88.50
18396;BME280;76377;45.194;5.734;2024-02-14T06:53:57;99985.88;;;5.90;88.04
18396;BME280;76377;45.194;5.734;2024-02-14T06:56:24;99990.09;;;5.96;87.20
18396;BME280;76377;45.194;5.734;2024-02-14T06:58:53;99989.59;;;5.94;86.92
18396;BME280;76377;45.194;5.734;2024-02-14T07:01:25;99984.25;;;6.11;86.22
18396;BME280;76377;45.194;5.734;2024-02-14T07:03:52;99982.31;;;6.12;85.95
18396;BME280;76377;45.194;5.734;2024-02-14T07:06:20;99983.13;;;6.12;85.96
18396;BME280;76377;45.194;5.734;2024-02-14T07:08:47;99977.13;;;6.10;86.29
18396;BME280;76377;45.194;5.734;2024-02-14T07:11:16;99977.31;;;6.14;85.26
18396;BME280;76377;45.194;5.734;2024-02-14T07:13:43;99970.53;;;6.11;85.58
18396;BME280;76377;45.194;5.734;2024-02-14T07:16:11;99963.97;;;5.98;86.93
18396;BME280;76377;45.194;5.734;2024-02-14T07:18:38;99969.03;;;6.05;86.64
18396;BME280;76377;45.194;5.734;2024-02-14T07:21:06;99972.50;;;6.19;86.37
18396;BME280;76377;45.194;5.734;2024-02-14T07:23:33;99961.44;;;6.24;85.77
18396;BME280;76377;45.194;5.734;2024-02-14T07:26:00;99967.47;;;6.35;85.34
18396;BME280;76377;45.194;5.734;2024-02-14T07:28:27;99960.72;;;6.41;84.64
18396;BME280;76377;45.194;5.734;2024-02-14T07:30:58;99953.78;;;6.44;83.88
18396;BME280;76377;45.194;5.734;2024-02-14T07:33:26;99963.50;;;6.50;84.11
18396;BME280;76377;45.194;5.734;2024-02-14T07:35:53;99959.34;;;6.61;82.33
18396;BME280;76377;45.194;5.734;2024-02-14T07:38:20;99959.69;;;6.68;80.30
18396;BME280;76377;45.194;5.734;2024-02-14T07:40:48;99958.66;;;6.86;78.46
18396;BME280;76377;45.194;5.734;2024-02-14T07:43:15;99963.84;;;6.88;72.10
18396;BME280;76377;45.194;5.734;2024-02-14T07:45:42;99965.00;;;7.78;68.49
18396;BME280;76377;45.194;5.734;2024-02-14T07:48:10;99948.47;;;10.40;59.74
18396;BME280;76377;45.194;5.734;2024-02-14T07:50:38;99946.38;;;13.62;49.06
18396;BME280;76377;45.194;5.734;2024-02-14T07:53:05;99948.22;;;16.65;41.83
18396;BME280;76377;45.194;5.734;2024-02-14T07:55:33;99944.31;;;19.63;35.16
18396;BME280;76377;45.194;5.734;2024-02-14T07:58:00;99940.75;;;21.98;30.76
18396;BME280;76377;45.194;5.734;2024-02-14T08:00:27;99932.16;;;23.70;27.65
18396;BME280;76377;45.194;5.734;2024-02-14T08:02:54;99931.06;;;23.64;26.85
18396;BME280;76377;45.194;5.734;2024-02-14T08:05:21;99931.41;;;25.01;25.11
18396;BME280;76377;45.194;5.734;2024-02-14T08:07:50;99934.91;;;25.70;24.19
18396;BME280;76377;45.194;5.734;2024-02-14T08:10:17;99936.53;;;25.84;23.73
18396;BME280;76377;45.194;5.734;2024-02-14T08:12:44;99936.78;;;24.60;24.74
18396;BME280;76377;45.194;5.734;2024-02-14T08:15:13;99946.31;;;24.49;25.12
18396;BME280;76377;45.194;5.734;2024-02-14T08:17:40;99943.34;;;26.16;23.65
18396;BME280;76377;45.194;5.734;2024-02-14T08:20:08;99943.53;;;28.08;21.97
18396;BME280;76377;45.194;5.734;2024-02-14T08:22:35;99944.78;;;28.51;21.14
18396;BME280;76377;45.194;5.734;2024-02-14T08:25:05;99942.19;;;28.97;20.40
18396;BME280;76377;45.194;5.734;2024-02-14T08:27:32;99929.59;;;28.45;20.49
18396;BME280;76377;45.194;5.734;2024-02-14T08:30:00;99924.19;;;29.76;19.34
18396;BME280;76377;45.194;5.734;2024-02-14T08:32:27;99924.38;;;31.98;17.93
18396;BME280;76377;45.194;5.734;2024-02-14T08:34:54;99928.84;;;33.23;17.15
18396;BME280;76377;45.194;5.734;2024-02-14T08:37:21;99932.25;;;31.65;17.34
18396;BME280;76377;45.194;5.734;2024-02-14T08:39:50;99927.41;;;29.20;18.24
18396;BME280;76377;45.194;5.734;2024-02-14T08:42:19;99941.56;;;31.51;16.93
18396;BME280;76377;45.194;5.734;2024-02-14T08:44:46;99947.13;;;29.91;17.88
18396;BME280;76377;45.194;5.734;2024-02-14T08:47:14;99944.25;;;27.78;19.01
18396;BME280;76377;45.194;5.734;2024-02-14T08:49:41;99930.72;;;29.18;18.21
18396;BME280;76377;45.194;5.734;2024-02-14T08:52:08;99923.81;;;28.26;19.06
18396;BME280;76377;45.194;5.734;2024-02-14T08:54:36;99937.31;;;29.74;18.43
18396;BME280;76377;45.194;5.734;2024-02-14T08:57:03;99936.97;;;32.89;15.92
18396;BME280;76377;45.194;5.734;2024-02-14T08:59:32;99929.88;;;32.55;15.77
18396;BME280;76377;45.194;5.734;2024-02-14T09:01:59;99930.56;;;31.01;17.04
18396;BME280;76377;45.194;5.734;2024-02-14T09:04:27;99929.72;;;31.10;17.56
18396;BME280;76377;45.194;5.734;2024-02-14T09:06:54;99924.16;;;32.26;17.11
18396;BME280;76377;45.194;5.734;2024-02-14T09:09:21;99919.69;;;30.91;18.05
18396;BME280;76377;45.194;5.734;2024-02-14T09:11:48;99908.13;;;32.19;17.38
18396;BME280;76377;45.194;5.734;2024-02-14T09:14:16;99910.31;;;32.54;16.54
18396;BME280;76377;45.194;5.734;2024-02-14T09:16:44;99915.66;;;34.64;15.28
18396;BME280;76377;45.194;5.734;2024-02-14T09:19:12;99910.16;;;33.28;16.79
18396;BME280;76377;45.194;5.734;2024-02-14T09:21:39;99914.78;;;35.27;15.65
18396;BME280;76377;45.194;5.734;2024-02-14T09:24:06;99914.19;;;35.11;14.82
18396;BME280;76377;45.194;5.734;2024-02-14T09:26:33;99918.25;;;33.84;16.08
18396;BME280;76377;45.194;5.734;2024-02-14T09:29:00;99916.81;;;32.25;17.10
18396;BME280;76377;45.194;5.734;2024-02-14T09:31:27;99900.63;;;32.81;16.28
18396;BME280;76377;45.194;5.734;2024-02-14T09:33:56;99896.00;;;33.39;15.88
18396;BME280;76377;45.194;5.734;2024-02-14T09:36:23;99891.56;;;33.38;16.18
18396;BME280;76377;45.194;5.734;2024-02-14T09:38:51;99900.25;;;30.20;18.70
18396;BME280;76377;45.194;5.734;2024-02-14T09:41:22;99898.00;;;29.41;19.70
18396;BME280;76377;45.194;5.734;2024-02-14T09:43:50;99900.91;;;27.64;20.98
18396;BME280;76377;45.194;5.734;2024-02-14T09:46:17;99897.47;;;26.33;22.38
18396;BME280;76377;45.194;5.734;2024-02-14T09:48:45;99888.00;;;28.16;20.33
18396;BME280;76377;45.194;5.734;2024-02-14T09:51:14;99885.25;;;27.82;20.50
18396;BME280;76377;45.194;5.734;2024-02-14T09:53:41;99877.59;;;29.79;18.84
18396;BME280;76377;45.194;5.734;2024-02-14T09:56:10;99885.22;;;29.82;18.33
18396;BME280;76377;45.194;5.734;2024-02-14T09:58:40;99885.81;;;28.20;19.70
18396;BME280;76377;45.194;5.734;2024-02-14T10:01:07;99894.41;;;25.99;22.25
18396;BME280;76377;45.194;5.734;2024-02-14T10:03:34;99898.19;;;24.33;23.96
18396;BME280;76377;45.194;5.734;2024-02-14T10:06:02;99917.94;;;22.53;26.40
18396;BME280;76377;45.194;5.734;2024-02-14T10:08:31;99922.28;;;21.15;27.91
18396;BME280;76377;45.194;5.734;2024-02-14T10:10:58;99913.34;;;20.02;29.04
18396;BME280;76377;45.194;5.734;2024-02-14T10:13:28;99910.13;;;20.00;29.35
18396;BME280;76377;45.194;5.734;2024-02-14T10:15:58;99899.88;;;19.29;30.21
18396;BME280;76377;45.194;5.734;2024-02-14T10:18:25;99911.81;;;18.48;31.78
18396;BME280;76377;45.194;5.734;2024-02-14T10:20:54;99918.53;;;17.46;33.50
18396;BME280;76377;45.194;5.734;2024-02-14T10:23:21;99918.81;;;16.79;35.48
18396;BME280;76377;45.194;5.734;2024-02-14T10:25:50;99920.97;;;16.96;35.35
18396;BME280;76377;45.194;5.734;2024-02-14T10:28:18;99937.94;;;17.21;34.96
18396;BME280;76377;45.194;5.734;2024-02-14T10:30:47;99931.31;;;17.43;34.34
18396;BME280;76377;45.194;5.734;2024-02-14T10:33:15;99931.38;;;17.54;34.43
18396;BME280;76377;45.194;5.734;2024-02-14T10:35:43;99925.66;;;17.36;34.40
18396;BME280;76377;45.194;5.734;2024-02-14T10:38:11;99919.78;;;16.97;35.41
18396;BME280;76377;45.194;5.734;2024-02-14T10:40:38;99916.88;;;17.34;34.91
18396;BME280;76377;45.194;5.734;2024-02-14T10:43:07;99922.44;;;17.30;34.96
18396;BME280;76377;45.194;5.734;2024-02-14T10:45:35;99912.56;;;17.47;34.93
18396;BME280;76377;45.194;5.734;2024-02-14T10:48:04;99903.59;;;17.79;34.06
18396;BME280;76377;45.194;5.734;2024-02-14T10:50:33;99895.59;;;16.67;35.79
18396;BME280;76377;45.194;5.734;2024-02-14T10:53:04;99903.88;;;17.04;35.19
18396;BME280;76377;45.194;5.734;2024-02-14T10:55:33;99898.84;;;16.73;36.13
18396;BME280;76377;45.194;5.734;2024-02-14T10:58:01;99916.22;;;16.63;35.93
18396;BME280;76377;45.194;5.734;2024-02-14T11:00:30;99917.03;;;16.63;35.22
18396;BME280;76377;45.194;5.734;2024-02-14T11:02:59;99917.41;;;16.21;36.69
18396;BME280;76377;45.194;5.734;2024-02-14T11:05:27;99914.69;;;16.28;36.61
18396;BME280;76377;45.194;5.734;2024-02-14T11:07:54;99903.13;;;16.26;36.41
18396;BME280;76377;45.194;5.734;2024-02-14T11:10:22;99894.41;;;16.31;36.42
18396;BME280;76377;45.194;5.734;2024-02-14T11:12:50;99899.28;;;16.41;35.42
18396;BME280;76377;45.194;5.734;2024-02-14T11:15:19;99895.72;;;16.45;34.25
18396;BME280;76377;45.194;5.734;2024-02-14T11:17:48;99891.78;;;16.12;34.04
18396;BME280;76377;45.194;5.734;2024-02-14T11:20:18;99898.88;;;16.39;32.79
18396;BME280;76377;45.194;5.734;2024-02-14T11:22:56;99897.88;;;16.62;32.46
18396;BME280;76377;45.194;5.734;2024-02-14T11:25:28;99898.28;;;16.64;32.09
18396;BME280;76377;45.194;5.734;2024-02-14T11:27:57;99896.22;;;16.54;32.16
18396;BME280;76377;45.194;5.734;2024-02-14T11:30:31;99898.97;;;16.50;30.43
18396;BME280;76377;45.194;5.734;2024-02-14T11:33:17;99892.03;;;16.33;30.75
18396;BME280;76377;45.194;5.734;2024-02-14T11:35:46;99890.91;;;15.71;30.86
18396;BME280;76377;45.194;5.734;2024-02-14T11:38:13;99889.75;;;15.75;30.81
18396;BME280;76377;45.194;5.734;2024-02-14T11:40:41;99885.72;;;16.40;31.03
18396;BME280;76377;45.194;5.734;2024-02-14T11:43:15;99881.75;;;16.45;30.16
18396;BME280;76377;45.194;5.734;2024-02-14T11:45:43;99874.41;;;16.26;30.76
18396;BME280;76377;45.194;5.734;2024-02-14T11:48:12;99865.09;;;16.52;30.20
18396;BME280;76377;45.194;5.734;2024-02-14T11:50:42;99865.09;;;16.52;29.74
18396;BME280;76377;45.194;5.734;2024-02-14T11:53:10;99866.34;;;17.06;30.19
18396;BME280;76377;45.194;5.734;2024-02-14T11:55:39;99859.94;;;17.01;30.62
18396;BME280;76377;45.194;5.734;2024-02-14T11:58:07;99871.22;;;17.16;31.18
18396;BME280;76377;45.194;5.734;2024-02-14T12:00:37;99869.78;;;16.40;32.70
18396;BME280;76377;45.194;5.734;2024-02-14T12:03:07;99859.16;;;16.57;32.90
18396;BME280;76377;45.194;5.734;2024-02-14T12:05:34;99867.81;;;16.85;32.33
18396;BME280;76377;45.194;5.734;2024-02-14T12:08:06;99861.19;;;17.08;31.92
18396;BME280;76377;45.194;5.734;2024-02-14T12:10:35;99854.53;;;17.23;30.98
18396;BME280;76377;45.194;5.734;2024-02-14T12:13:10;99857.03;;;17.42;30.89
18396;BME280;76377;45.194;5.734;2024-02-14T12:15:39;99848.97;;;17.30;30.89
18396;BME280;76377;45.194;5.734;2024-02-14T12:18:08;99859.31;;;17.22;31.17
18396;BME280;76377;45.194;5.734;2024-02-14T12:20:35;99848.63;;;17.42;30.99
18396;BME280;76377;45.194;5.734;2024-02-14T12:23:05;99842.13;;;17.20;31.06
18396;BME280;76377;45.194;5.734;2024-02-14T12:25:33;99831.13;;;17.59;30.57
18396;BME280;76377;45.194;5.734;2024-02-14T12:28:00;99843.72;;;17.21;31.32
18396;BME280;76377;45.194;5.734;2024-02-14T12:30:42;99845.88;;;17.53;30.30
18396;BME280;76377;45.194;5.734;2024-02-14T12:33:11;99839.09;;;17.54;29.71
18396;BME280;76377;45.194;5.734;2024-02-14T12:35:41;99838.72;;;17.55;29.96
18396;BME280;76377;45.194;5.734;2024-02-14T12:38:11;99833.88;;;17.45;30.05
18396;BME280;76377;45.194;5.734;2024-02-14T12:40:39;99826.69;;;17.44;29.58
18396;BME280;76377;45.194;5.734;2024-02-14T12:43:08;99829.41;;;17.30;30.33
18396;BME280;76377;45.194;5.734;2024-02-14T12:45:36;99813.22;;;17.67;29.96
18396;BME280;76377;45.194;5.734;2024-02-14T12:48:04;99811.66;;;17.74;29.95
18396;BME280;76377;45.194;5.734;2024-02-14T12:50:31;99799.69;;;17.73;30.04
18396;BME280;76377;45.194;5.734;2024-02-14T12:52:58;99798.44;;;17.67;29.87
18396;BME280;76377;45.194;5.734;2024-02-14T12:55:27;99800.09;;;17.75;29.31
18396;BME280;76377;45.194;5.734;2024-02-14T12:57:54;99796.91;;;17.87;29.30
18396;BME280;76377;45.194;5.734;2024-02-14T13:00:22;99808.50;;;17.79;29.18
18396;BME280;76377;45.194;5.734;2024-02-14T13:02:49;99797.91;;;17.40;29.23
18396;BME280;76377;45.194;5.734;2024-02-14T13:05:18;99793.22;;;17.65;28.94
18396;BME280;76377;45.194;5.734;2024-02-14T13:07:45;99792.09;;;17.77;28.56
18396;BME280;76377;45.194;5.734;2024-02-14T13:10:12;99781.72;;;17.78;27.99
18396;BME280;76377;45.194;5.734;2024-02-14T13:12:41;99788.38;;;17.59;28.38